This is the latest recevied weather packets stored in our database for station/object DF9PM-13. If no packets are shown the sender has not sent any weather packets the latest 10 day(s).
| Time | Temp. | Humidity | Pressure | Rain* | Wind** | Luminosity | Snow |
|---|---|---|---|---|---|---|---|
| 1777684794 | 11.11° C | 86% | 1022.3 hPa | - | - | - | - |
| 1777684493 | 11.67° C | 79% | 1022.3 hPa | - | - | - | - |
| 1777684193 | 11.67° C | 80% | 1022.4 hPa | - | - | - | - |
| 1777683894 | 10.56° C | 88% | 1022.4 hPa | - | - | - | - |
| 1777683593 | 11.67° C | 79% | 1022.4 hPa | - | - | - | - |
| 1777683293 | 11.67° C | 76% | 1022.4 hPa | - | - | - | - |
| 1777682993 | 11.67° C | 78% | 1022.5 hPa | - | - | - | - |
| 1777682693 | 11.11° C | 83% | 1022.6 hPa | - | - | - | - |
| 1777682393 | 12.22° C | 75% | 1022.6 hPa | - | - | - | - |
| 1777682093 | 12.22° C | 75% | 1022.6 hPa | - | - | - | - |
| 1777681793 | 12.22° C | 74% | 1022.6 hPa | - | - | - | - |
| 1777681493 | 12.22° C | 73% | 1022.6 hPa | - | - | - | - |
| 1777681193 | 12.22° C | 71% | 1022.6 hPa | - | - | - | - |
| 1777680893 | 12.78° C | 69% | 1022.6 hPa | - | - | - | - |
| 1777680593 | 12.78° C | 68% | 1022.7 hPa | - | - | - | - |
| 1777680293 | 12.78° C | 69% | 1022.7 hPa | - | - | - | - |
| 1777679993 | 12.78° C | 68% | 1022.8 hPa | - | - | - | - |
| 1777679693 | 12.78° C | 66% | 1022.8 hPa | - | - | - | - |
| 1777679393 | 12.78° C | 66% | 1022.8 hPa | - | - | - | - |
| 1777679092 | 12.78° C | 67% | 1022.9 hPa | - | - | - | - |
| 1777678792 | 13.33° C | 63% | 1022.9 hPa | - | - | - | - |
| 1777678492 | 13.33° C | 64% | 1022.9 hPa | - | - | - | - |
| 1777678192 | 13.33° C | 62% | 1022.9 hPa | - | - | - | - |
| 1777677892 | 13.89° C | 60% | 1022.9 hPa | - | - | - | - |
| 1777677592 | 13.89° C | 60% | 1023 hPa | - | - | - | - |
* Rain since midnight (hover to see other rain measurements)
** Current wind speed in m/s (hover to see current wind gust speed)